EDT,Max TemperatureF,Mean TemperatureF,Min TemperatureF,Max Dew PointF,MeanDew PointF,Min DewpointF,Max Humidity, Mean Humidity, Min Humidity, Max Sea Level PressureIn, Mean Sea Level PressureIn, Min Sea Level PressureIn, Max VisibilityMiles, Mean VisibilityMiles, Min VisibilityMiles, Max Wind SpeedMPH, Mean Wind SpeedMPH, Max Gust SpeedMPH,PrecipitationIn, CloudCover, Events, WindDirDegrees
2013-3-1,53,42,30,35,28,26,88,59,36,29.97,29.93,29.87,10,10,10,13,5,,0.00,3,,294
2013-3-2,48,40,33,36,31,28,82,66,50,29.94,29.91,29.86,10,9,7,8,5,,0.00,7,Rain,299
2013-3-3,47,38,29,31,22,17,77,52,33,30.04,29.97,29.93,10,9,7,14,6,22,0.00,5,,316
2013-3-4,55,39,23,28,19,13,77,50,19,30.19,30.12,30.04,10,10,10,14,4,,0.00,1,,307
2013-3-5,70,52,34,52,41,28,87,66,40,30.12,29.91,29.68,10,10,7,20,6,29,0.05,6,Rain,177
2013-3-6,54,44,33,37,24,19,72,47,29,30.14,29.90,29.71,10,10,10,26,18,34,0.01,1,,288
2013-3-7,57,42,27,32,29,23,87,61,32,30.26,30.19,30.14,10,6,0,12,4,,0.00,1,,322
2013-3-8,60,46,31,27,23,19,75,49,20,30.33,30.27,30.19,10,9,2,17,7,21,0.00,0,,348
2013-3-9,64,54,45,30,28,23,42,31,26,30.34,30.29,30.24,10,10,10,6,3,,0.00,1,,40
2013-3-10,68,50,33,41,36,34,100,51,28,30.30,30.27,30.21,10,10,10,8,4,,0.00,4,Fog,150
2013-3-11,72,58,44,55,49,28,94,66,43,30.19,30.01,29.89,10,10,5,17,9,26,0.00,6,Rain,140
2013-3-12,73,64,48,63,55,41,100,79,33,29.98,29.86,29.81,10,8,2,13,9,22,0.01,5,Rain,230
2013-3-13,62,48,33,36,27,19,91,45,21,30.17,30.07,29.99,10,10,10,23,9,37,0.00,0,,294
2013-3-14,56,42,28,28,20,14,74,46,20,30.33,30.24,30.19,10,10,10,15,6,17,0.00,1,,307
2013-3-15,70,49,28,37,29,20,86,49,24,30.25,30.13,29.99,10,10,10,14,4,23,0.00,1,,227
2013-3-16,81,68,55,45,40,35,58,38,20,29.99,29.92,29.82,10,10,10,21,11,31,0.00,2,,232
2013-3-17,77,67,57,50,47,42,70,49,33,30.03,29.97,29.91,10,10,10,16,10,22,0.00,3,,234
2013-3-18,62,54,46,59,49,45,100,80,65,30.10,29.98,29.83,10,8,0,37,8,51,0.93,7,Rain-Thunderstorm,58
2013-3-19,71,59,48,51,47,23,100,89,21,30.04,29.91,29.86,10,6,0,15,7,21,0.00,6,Fog,277
2013-3-20,58,48,38,32,21,12,75,37,18,30.14,30.00,29.82,10,10,10,10,5,17,0.00,4,,360
2013-3-21,55,44,33,29,17,10,69,37,18,29.97,29.86,29.82,10,10,10,18,11,26,0.00,1,,302
2013-3-22,51,40,28,28,18,13,76,42,25,30.12,30.06,29.99,10,10,10,9,3,,0.00,5,,145
2013-3-23,50,43,36,46,41,30,100,89,69,30.06,29.99,29.91,10,8,2,9,3,,0.70,7,Rain,65
2013-3-24,48,45,42,48,45,41,100,97,87,29.90,29.67,29.55,10,7,1,17,7,25,1.59,8,Rain-Thunderstorm,37
2013-3-25,50,44,39,43,32,21,100,67,35,29.97,29.72,29.59,10,10,10,28,9,38,0.01,4,,257
2013-3-26,49,40,31,26,23,21,72,52,36,30.20,30.05,29.97,10,10,10,15,10,22,0.00,3,,279
2013-3-27,56,42,28,30,24,21,79,52,27,30.30,30.24,30.19,10,10,10,13,7,22,0.00,0,,293
2013-3-28,60,44,29,30,23,19,83,46,23,30.33,30.27,30.20,10,10,10,15,5,22,0.00,0,,331
2013-3-29,65,46,30,37,26,20,85,47,19,30.38,30.30,30.22,10,10,10,12,4,,0.00,2,,338
2013-3-30,71,59,48,47,42,35,76,57,35,30.25,30.16,30.08,10,10,10,10,3,,0.00,4,,85
2013-3-31,77,64,52,60,55,46,100,82,38,30.07,29.93,29.86,10,6,0,22,6,43,0.17,6,Fog-Rain,169